sensor_id;sensor_type;location;lat;lon;timestamp;temperature;humidity
55016;DHT22;40919;43.236;21.590;2023-05-28T00:00:06;461.10;2380.80
55016;DHT22;40919;43.236;21.590;2023-05-28T00:02:32;461.00;2380.80
55016;DHT22;40919;43.236;21.590;2023-05-28T00:04:59;461.10;2380.80
55016;DHT22;40919;43.236;21.590;2023-05-28T00:07:26;461.20;2380.80
55016;DHT22;40919;43.236;21.590;2023-05-28T00:09:54;461.00;2380.80
55016;DHT22;40919;43.236;21.590;2023-05-28T00:12:21;460.90;2380.80
55016;DHT22;40919;43.236;21.590;2023-05-28T00:14:47;436.10;2355.20
55016;DHT22;40919;43.236;21.590;2023-05-28T00:17:14;460.80;2380.80
55016;DHT22;40919;43.236;21.590;2023-05-28T00:19:41;460.90;2380.80
55016;DHT22;40919;43.236;21.590;2023-05-28T00:22:07;460.90;2380.80
55016;DHT22;40919;43.236;21.590;2023-05-28T00:24:33;460.90;2380.80
55016;DHT22;40919;43.236;21.590;2023-05-28T00:26:59;460.90;2380.80
55016;DHT22;40919;43.236;21.590;2023-05-28T00:29:24;461.00;2380.80
55016;DHT22;40919;43.236;21.590;2023-05-28T00:31:52;460.90;2380.80
55016;DHT22;40919;43.236;21.590;2023-05-28T00:34:24;460.90;2380.80
55016;DHT22;40919;43.236;21.590;2023-05-28T00:36:50;460.90;2380.80
55016;DHT22;40919;43.236;21.590;2023-05-28T00:39:20;461.10;2380.80
55016;DHT22;40919;43.236;21.590;2023-05-28T00:41:46;461.10;2380.80
55016;DHT22;40919;43.236;21.590;2023-05-28T00:44:12;461.20;2380.80
55016;DHT22;40919;43.236;21.590;2023-05-28T00:46:44;461.10;2380.80
55016;DHT22;40919;43.236;21.590;2023-05-28T00:49:10;461.10;2380.80
55016;DHT22;40919;43.236;21.590;2023-05-28T00:51:38;461.20;2380.80
55016;DHT22;40919;43.236;21.590;2023-05-28T00:54:04;461.20;2380.80
55016;DHT22;40919;43.236;21.590;2023-05-28T00:56:30;461.20;2380.80
55016;DHT22;40919;43.236;21.590;2023-05-28T00:58:58;461.20;2380.80
55016;DHT22;40919;43.236;21.590;2023-05-28T01:01:26;461.20;2380.80
55016;DHT22;40919;43.236;21.590;2023-05-28T01:03:53;461.20;2380.80
55016;DHT22;40919;43.236;21.590;2023-05-28T01:06:20;461.20;2380.80
55016;DHT22;40919;43.236;21.590;2023-05-28T01:08:47;461.20;2380.80
55016;DHT22;40919;43.236;21.590;2023-05-28T01:11:23;461.00;2380.80
55016;DHT22;40919;43.236;21.590;2023-05-28T01:13:51;460.90;2380.80
55016;DHT22;40919;43.236;21.590;2023-05-28T01:16:17;436.10;2355.20
55016;DHT22;40919;43.236;21.590;2023-05-28T01:18:43;460.90;2380.80
55016;DHT22;40919;43.236;21.590;2023-05-28T01:21:13;460.80;2380.80
55016;DHT22;40919;43.236;21.590;2023-05-28T01:23:46;436.10;2355.20
55016;DHT22;40919;43.236;21.590;2023-05-28T01:26:14;436.10;2355.20
55016;DHT22;40919;43.236;21.590;2023-05-28T01:28:44;436.10;2355.20
55016;DHT22;40919;43.236;21.590;2023-05-28T01:31:11;460.80;2380.80
55016;DHT22;40919;43.236;21.590;2023-05-28T01:33:38;436.10;2355.20
55016;DHT22;40919;43.236;21.590;2023-05-28T01:36:10;460.80;2380.80
55016;DHT22;40919;43.236;21.590;2023-05-28T01:38:39;460.80;2380.80
55016;DHT22;40919;43.236;21.590;2023-05-28T01:41:06;436.10;2355.20
55016;DHT22;40919;43.236;21.590;2023-05-28T01:43:33;460.80;2380.80
55016;DHT22;40919;43.236;21.590;2023-05-28T01:45:59;460.80;2380.80
55016;DHT22;40919;43.236;21.590;2023-05-28T01:48:26;436.10;2355.20
55016;DHT22;40919;43.236;21.590;2023-05-28T01:50:53;461.10;2380.80
55016;DHT22;40919;43.236;21.590;2023-05-28T01:53:19;436.00;2355.20
55016;DHT22;40919;43.236;21.590;2023-05-28T01:55:44;436.10;2355.20
55016;DHT22;40919;43.236;21.590;2023-05-28T01:58:10;436.10;2355.20
55016;DHT22;40919;43.236;21.590;2023-05-28T02:00:42;436.10;2355.20
55016;DHT22;40919;43.236;21.590;2023-05-28T02:03:09;436.10;2355.20
55016;DHT22;40919;43.236;21.590;2023-05-28T02:05:37;436.10;2355.20
55016;DHT22;40919;43.236;21.590;2023-05-28T02:08:03;436.10;2355.20
55016;DHT22;40919;43.236;21.590;2023-05-28T02:10:29;436.00;2355.20
55016;DHT22;40919;43.236;21.590;2023-05-28T02:12:56;436.10;2355.20
55016;DHT22;40919;43.236;21.590;2023-05-28T02:15:22;435.90;2355.20
55016;DHT22;40919;43.236;21.590;2023-05-28T02:17:48;436.00;2355.20
55016;DHT22;40919;43.236;21.590;2023-05-28T02:20:15;436.00;2355.20
55016;DHT22;40919;43.236;21.590;2023-05-28T02:22:40;436.10;2355.20
55016;DHT22;40919;43.236;21.590;2023-05-28T02:25:06;436.10;2355.20
55016;DHT22;40919;43.236;21.590;2023-05-28T02:27:32;436.00;2355.20
55016;DHT22;40919;43.236;21.590;2023-05-28T02:29:58;436.10;2355.20
55016;DHT22;40919;43.236;21.590;2023-05-28T02:32:24;436.10;2355.20
55016;DHT22;40919;43.236;21.590;2023-05-28T02:34:49;436.10;2355.20
55016;DHT22;40919;43.236;21.590;2023-05-28T02:37:16;436.00;2355.20
55016;DHT22;40919;43.236;21.590;2023-05-28T02:39:41;436.10;2355.20
55016;DHT22;40919;43.236;21.590;2023-05-28T02:42:07;436.00;2355.20
55016;DHT22;40919;43.236;21.590;2023-05-28T02:44:33;436.10;2355.20
55016;DHT22;40919;43.236;21.590;2023-05-28T02:46:59;436.10;2355.20
55016;DHT22;40919;43.236;21.590;2023-05-28T02:49:25;436.10;2355.20
55016;DHT22;40919;43.236;21.590;2023-05-28T02:51:50;436.10;2355.20
55016;DHT22;40919;43.236;21.590;2023-05-28T02:54:16;436.10;2355.20
55016;DHT22;40919;43.236;21.590;2023-05-28T02:56:42;436.10;2355.20
55016;DHT22;40919;43.236;21.590;2023-05-28T02:59:08;436.00;2355.20
55016;DHT22;40919;43.236;21.590;2023-05-28T03:01:33;436.10;2355.20
55016;DHT22;40919;43.236;21.590;2023-05-28T03:03:59;436.10;2355.20
55016;DHT22;40919;43.236;21.590;2023-05-28T03:06:26;435.90;2355.20
55016;DHT22;40919;43.236;21.590;2023-05-28T03:08:52;435.70;2355.20
55016;DHT22;40919;43.236;21.590;2023-05-28T03:11:18;435.80;2355.20
55016;DHT22;40919;43.236;21.590;2023-05-28T03:13:45;435.90;2355.20
55016;DHT22;40919;43.236;21.590;2023-05-28T03:16:11;435.90;2355.20
55016;DHT22;40919;43.236;21.590;2023-05-28T03:18:37;435.90;2355.20
55016;DHT22;40919;43.236;21.590;2023-05-28T03:21:02;435.80;2355.20
55016;DHT22;40919;43.236;21.590;2023-05-28T03:23:28;435.90;2355.20
55016;DHT22;40919;43.236;21.590;2023-05-28T03:25:54;436.00;2355.20
55016;DHT22;40919;43.236;21.590;2023-05-28T03:28:20;436.10;2355.20
55016;DHT22;40919;43.236;21.590;2023-05-28T03:30:46;436.00;2355.20
55016;DHT22;40919;43.236;21.590;2023-05-28T03:33:11;436.10;2355.20
55016;DHT22;40919;43.236;21.590;2023-05-28T03:35:37;436.10;2355.20
55016;DHT22;40919;43.236;21.590;2023-05-28T03:38:03;460.80;2380.80
55016;DHT22;40919;43.236;21.590;2023-05-28T03:40:29;460.80;2380.80
55016;DHT22;40919;43.236;21.590;2023-05-28T03:42:54;436.10;2355.20
55016;DHT22;40919;43.236;21.590;2023-05-28T03:45:20;436.00;2355.20
55016;DHT22;40919;43.236;21.590;2023-05-28T03:47:46;436.10;2355.20
55016;DHT22;40919;43.236;21.590;2023-05-28T03:50:12;436.10;2355.20
55016;DHT22;40919;43.236;21.590;2023-05-28T03:52:38;436.10;2355.20
55016;DHT22;40919;43.236;21.590;2023-05-28T03:55:04;436.10;2355.20
55016;DHT22;40919;43.236;21.590;2023-05-28T03:57:30;460.80;2380.80
55016;DHT22;40919;43.236;21.590;2023-05-28T03:59:55;460.80;2380.80
55016;DHT22;40919;43.236;21.590;2023-05-28T04:02:22;436.10;2355.20
55016;DHT22;40919;43.236;21.590;2023-05-28T04:04:49;436.10;2355.20
55016;DHT22;40919;43.236;21.590;2023-05-28T04:07:14;460.80;2380.80
55016;DHT22;40919;43.236;21.590;2023-05-28T04:09:40;460.80;2380.80
55016;DHT22;40919;43.236;21.590;2023-05-28T04:12:06;460.90;2380.80
55016;DHT22;40919;43.236;21.590;2023-05-28T04:14:32;460.90;2380.80
55016;DHT22;40919;43.236;21.590;2023-05-28T04:16:58;460.90;2380.80
55016;DHT22;40919;43.236;21.590;2023-05-28T04:19:24;461.10;2380.80
55016;DHT22;40919;43.236;21.590;2023-05-28T04:21:50;461.10;2380.80
55016;DHT22;40919;43.236;21.590;2023-05-28T04:24:15;460.90;2380.80
55016;DHT22;40919;43.236;21.590;2023-05-28T04:26:41;460.80;2380.80
55016;DHT22;40919;43.236;21.590;2023-05-28T04:29:07;436.10;2355.20
55016;DHT22;40919;43.236;21.590;2023-05-28T04:31:33;460.80;2380.80
55016;DHT22;40919;43.236;21.590;2023-05-28T04:33:59;436.10;2355.20
55016;DHT22;40919;43.236;21.590;2023-05-28T04:36:25;436.10;2355.20
55016;DHT22;40919;43.236;21.590;2023-05-28T04:38:55;436.00;2355.20
55016;DHT22;40919;43.236;21.590;2023-05-28T04:41:23;436.00;2355.20
55016;DHT22;40919;43.236;21.590;2023-05-28T04:43:49;436.00;2355.20
55016;DHT22;40919;43.236;21.590;2023-05-28T04:46:15;436.00;2355.20
55016;DHT22;40919;43.236;21.590;2023-05-28T04:48:40;436.00;2355.20
55016;DHT22;40919;43.236;21.590;2023-05-28T04:51:06;436.10;2355.20
55016;DHT22;40919;43.236;21.590;2023-05-28T04:53:32;436.10;2355.20
55016;DHT22;40919;43.236;21.590;2023-05-28T04:55:59;436.10;2355.20
55016;DHT22;40919;43.236;21.590;2023-05-28T04:58:25;436.10;2355.20
55016;DHT22;40919;43.236;21.590;2023-05-28T05:00:51;460.90;2380.80
55016;DHT22;40919;43.236;21.590;2023-05-28T05:03:18;461.00;2380.80
55016;DHT22;40919;43.236;21.590;2023-05-28T05:05:43;461.10;2380.80
55016;DHT22;40919;43.236;21.590;2023-05-28T05:08:09;461.10;2380.80
55016;DHT22;40919;43.236;21.590;2023-05-28T05:10:39;461.00;2380.80
55016;DHT22;40919;43.236;21.590;2023-05-28T05:13:05;460.90;2380.80
55016;DHT22;40919;43.236;21.590;2023-05-28T05:15:31;461.10;2380.80
55016;DHT22;40919;43.236;21.590;2023-05-28T05:17:58;461.70;2380.80
55016;DHT22;40919;43.236;21.590;2023-05-28T05:20:24;461.20;2380.80
55016;DHT22;40919;43.236;21.590;2023-05-28T05:22:50;461.30;2380.80
55016;DHT22;40919;43.236;21.590;2023-05-28T05:25:15;461.40;2380.80
55016;DHT22;40919;43.236;21.590;2023-05-28T05:27:41;461.50;2380.80
55016;DHT22;40919;43.236;21.590;2023-05-28T05:30:07;461.40;2380.80
55016;DHT22;40919;43.236;21.590;2023-05-28T05:32:33;461.40;2380.80
55016;DHT22;40919;43.236;21.590;2023-05-28T05:34:59;461.40;2380.80
55016;DHT22;40919;43.236;21.590;2023-05-28T05:37:25;461.60;2380.80
55016;DHT22;40919;43.236;21.590;2023-05-28T05:39:51;461.60;2380.80
55016;DHT22;40919;43.236;21.590;2023-05-28T05:42:16;461.60;2380.80
55016;DHT22;40919;43.236;21.590;2023-05-28T05:44:42;461.70;2380.80
55016;DHT22;40919;43.236;21.590;2023-05-28T05:47:08;461.70;2380.80
55016;DHT22;40919;43.236;21.590;2023-05-28T05:49:34;486.40;2380.80
55016;DHT22;40919;43.236;21.590;2023-05-28T05:51:59;486.40;2380.80
55016;DHT22;40919;43.236;21.590;2023-05-28T05:54:25;486.50;2380.80
55016;DHT22;40919;43.236;21.590;2023-05-28T05:56:51;486.50;2380.80
55016;DHT22;40919;43.236;21.590;2023-05-28T05:59:18;486.50;2380.80
55016;DHT22;40919;43.236;21.590;2023-05-28T06:01:44;486.50;2380.80
55016;DHT22;40919;43.236;21.590;2023-05-28T06:04:09;486.50;2380.80
55016;DHT22;40919;43.236;21.590;2023-05-28T06:06:35;486.70;2380.80
55016;DHT22;40919;43.236;21.590;2023-05-28T06:09:03;486.70;2380.80
55016;DHT22;40919;43.236;21.590;2023-05-28T06:11:28;486.70;2380.80
55016;DHT22;40919;43.236;21.590;2023-05-28T06:13:54;486.80;2380.80
55016;DHT22;40919;43.236;21.590;2023-05-28T06:16:20;487.00;2380.80
55016;DHT22;40919;43.236;21.590;2023-05-28T06:18:47;487.00;2380.80
55016;DHT22;40919;43.236;21.590;2023-05-28T06:21:13;487.10;2380.80
55016;DHT22;40919;43.236;21.590;2023-05-28T06:23:39;487.00;2380.80
55016;DHT22;40919;43.236;21.590;2023-05-28T06:26:05;487.10;2380.80
55016;DHT22;40919;43.236;21.590;2023-05-28T06:28:31;487.20;2380.80
55016;DHT22;40919;43.236;21.590;2023-05-28T06:30:57;487.20;2380.80
55016;DHT22;40919;43.236;21.590;2023-05-28T06:33:23;487.20;2380.80
55016;DHT22;40919;43.236;21.590;2023-05-28T06:35:48;487.20;2380.80
55016;DHT22;40919;43.236;21.590;2023-05-28T06:38:14;487.20;2380.80
55016;DHT22;40919;43.236;21.590;2023-05-28T06:40:40;487.20;2380.80
55016;DHT22;40919;43.236;21.590;2023-05-28T06:43:06;487.30;2380.80
55016;DHT22;40919;43.236;21.590;2023-05-28T06:45:32;487.30;2380.80
55016;DHT22;40919;43.236;21.590;2023-05-28T06:47:59;512.00;2380.80
55016;DHT22;40919;43.236;21.590;2023-05-28T06:50:25;512.00;2380.80
55016;DHT22;40919;43.236;21.590;2023-05-28T06:52:51;512.10;2380.80
55016;DHT22;40919;43.236;21.590;2023-05-28T06:55:16;512.10;2380.80
55016;DHT22;40919;43.236;21.590;2023-05-28T06:57:42;512.10;2380.80
55016;DHT22;40919;43.236;21.590;2023-05-28T07:00:10;512.20;2380.80
55016;DHT22;40919;43.236;21.590;2023-05-28T07:02:40;512.40;2380.80
55016;DHT22;40919;43.236;21.590;2023-05-28T07:05:05;512.50;2380.80
55016;DHT22;40919;43.236;21.590;2023-05-28T07:07:32;512.50;2380.80
55016;DHT22;40919;43.236;21.590;2023-05-28T07:09:58;512.50;2380.80
55016;DHT22;40919;43.236;21.590;2023-05-28T07:12:23;512.40;2380.80
55016;DHT22;40919;43.236;21.590;2023-05-28T07:14:49;512.50;2380.80
55016;DHT22;40919;43.236;21.590;2023-05-28T07:17:15;512.50;2380.80
55016;DHT22;40919;43.236;21.590;2023-05-28T07:19:41;512.50;2380.80
55016;DHT22;40919;43.236;21.590;2023-05-28T07:22:06;512.50;2380.80
55016;DHT22;40919;43.236;21.590;2023-05-28T07:24:32;512.50;2380.80
55016;DHT22;40919;43.236;21.590;2023-05-28T07:26:58;512.50;2380.80
55016;DHT22;40919;43.236;21.590;2023-05-28T07:29:28;512.60;2380.80
55016;DHT22;40919;43.236;21.590;2023-05-28T07:31:54;512.70;2380.80
55016;DHT22;40919;43.236;21.590;2023-05-28T07:34:20;512.90;2380.80
55016;DHT22;40919;43.236;21.590;2023-05-28T07:36:46;537.70;2406.40
55016;DHT22;40919;43.236;21.590;2023-05-28T07:39:12;537.80;2406.40
55016;DHT22;40919;43.236;21.590;2023-05-28T07:41:38;537.70;2406.40
55016;DHT22;40919;43.236;21.590;2023-05-28T07:44:04;537.80;2406.40
55016;DHT22;40919;43.236;21.590;2023-05-28T07:46:32;537.80;2406.40
55016;DHT22;40919;43.236;21.590;2023-05-28T07:48:57;537.70;2406.40
55016;DHT22;40919;43.236;21.590;2023-05-28T07:51:24;537.60;2406.40
55016;DHT22;40919;43.236;21.590;2023-05-28T07:53:51;537.60;2406.40
55016;DHT22;40919;43.236;21.590;2023-05-28T07:56:18;537.70;2406.40
55016;DHT22;40919;43.236;21.590;2023-05-28T07:58:44;537.70;2406.40
55016;DHT22;40919;43.236;21.590;2023-05-28T08:01:10;537.80;2406.40
55016;DHT22;40919;43.236;21.590;2023-05-28T08:03:36;537.80;2406.40
55016;DHT22;40919;43.236;21.590;2023-05-28T08:06:03;537.70;2406.40
55016;DHT22;40919;43.236;21.590;2023-05-28T08:08:29;537.80;2406.40
55016;DHT22;40919;43.236;21.590;2023-05-28T08:10:55;537.90;2406.40
55016;DHT22;40919;43.236;21.590;2023-05-28T08:13:21;537.90;2406.40
55016;DHT22;40919;43.236;21.590;2023-05-28T08:15:47;538.20;2406.40
55016;DHT22;40919;43.236;21.590;2023-05-28T08:18:13;538.10;2406.40
55016;DHT22;40919;43.236;21.590;2023-05-28T08:20:39;538.20;2406.40
55016;DHT22;40919;43.236;21.590;2023-05-28T08:23:05;538.10;2406.40
55016;DHT22;40919;43.236;21.590;2023-05-28T08:25:32;538.00;2406.40
55016;DHT22;40919;43.236;21.590;2023-05-28T08:27:58;538.00;2406.40
55016;DHT22;40919;43.236;21.590;2023-05-28T08:30:24;538.00;2406.40
55016;DHT22;40919;43.236;21.590;2023-05-28T08:32:50;538.00;2406.40
55016;DHT22;40919;43.236;21.590;2023-05-28T08:35:16;538.00;2406.40
55016;DHT22;40919;43.236;21.590;2023-05-28T08:37:42;538.00;2406.40
55016;DHT22;40919;43.236;21.590;2023-05-28T08:40:08;538.00;2406.40
55016;DHT22;40919;43.236;21.590;2023-05-28T08:42:35;538.00;2406.40
55016;DHT22;40919;43.236;21.590;2023-05-28T08:45:05;538.10;2406.40
55016;DHT22;40919;43.236;21.590;2023-05-28T08:47:34;563.20;2432.00
55016;DHT22;40919;43.236;21.590;2023-05-28T08:50:04;563.60;2432.00
55016;DHT22;40919;43.236;21.590;2023-05-28T08:52:34;564.10;2432.00
55016;DHT22;40919;43.236;21.590;2023-05-28T08:55:00;589.00;2432.00
55016;DHT22;40919;43.236;21.590;2023-05-28T08:57:28;588.80;2432.00
55016;DHT22;40919;43.236;21.590;2023-05-28T08:59:55;564.10;2432.00
55016;DHT22;40919;43.236;21.590;2023-05-28T09:02:24;564.00;2432.00
55016;DHT22;40919;43.236;21.590;2023-05-28T09:04:50;564.00;2432.00
55016;DHT22;40919;43.236;21.590;2023-05-28T09:07:16;563.80;2432.00
55016;DHT22;40919;43.236;21.590;2023-05-28T09:09:42;563.70;2432.00
55016;DHT22;40919;43.236;21.590;2023-05-28T09:12:20;563.60;2432.00
55016;DHT22;40919;43.236;21.590;2023-05-28T09:14:50;563.70;2432.00
55016;DHT22;40919;43.236;21.590;2023-05-28T09:17:31;563.80;2432.00
55016;DHT22;40919;43.236;21.590;2023-05-28T09:19:57;563.80;2432.00
55016;DHT22;40919;43.236;21.590;2023-05-28T09:22:26;563.70;2432.00
55016;DHT22;40919;43.236;21.590;2023-05-28T09:24:53;588.80;2432.00
55016;DHT22;40919;43.236;21.590;2023-05-28T09:27:20;589.30;2432.00
55016;DHT22;40919;43.236;21.590;2023-05-28T09:29:48;589.30;2432.00
55016;DHT22;40919;43.236;21.590;2023-05-28T09:32:18;589.40;2432.00
55016;DHT22;40919;43.236;21.590;2023-05-28T09:34:49;614.40;2432.00
55016;DHT22;40919;43.236;21.590;2023-05-28T09:37:16;614.70;2432.00
55016;DHT22;40919;43.236;21.590;2023-05-28T09:39:43;615.10;2432.00
55016;DHT22;40919;43.236;21.590;2023-05-28T09:42:09;615.30;2432.00
55016;DHT22;40919;43.236;21.590;2023-05-28T09:44:38;640.20;2432.00
55016;DHT22;40919;43.236;21.590;2023-05-28T09:47:14;640.20;2432.00
55016;DHT22;40919;43.236;21.590;2023-05-28T09:49:46;640.60;2432.00
55016;DHT22;40919;43.236;21.590;2023-05-28T09:52:20;640.70;2432.00
55016;DHT22;40919;43.236;21.590;2023-05-28T09:54:53;640.50;2432.00
55016;DHT22;40919;43.236;21.590;2023-05-28T09:57:31;640.90;2432.00
55016;DHT22;40919;43.236;21.590;2023-05-28T10:00:00;665.70;2432.00
55016;DHT22;40919;43.236;21.590;2023-05-28T10:05:31;665.90;2380.80
55016;DHT22;40919;43.236;21.590;2023-05-28T10:08:00;665.60;2355.20
55016;DHT22;40919;43.236;21.590;2023-05-28T10:10:27;640.70;2406.40
55016;DHT22;40919;43.236;21.590;2023-05-28T10:12:55;640.50;2355.20
55016;DHT22;40919;43.236;21.590;2023-05-28T10:15:22;640.50;2380.80
55016;DHT22;40919;43.236;21.590;2023-05-28T10:17:49;640.50;2406.40
55016;DHT22;40919;43.236;21.590;2023-05-28T10:20:17;640.70;2380.80
55016;DHT22;40919;43.236;21.590;2023-05-28T10:22:43;665.90;2380.80
55016;DHT22;40919;43.236;21.590;2023-05-28T10:25:10;666.30;2355.20
55016;DHT22;40919;43.236;21.590;2023-05-28T10:27:44;691.20;2304.00
55016;DHT22;40919;43.236;21.590;2023-05-28T10:30:10;691.30;2227.20
55016;DHT22;40919;43.236;21.590;2023-05-28T10:32:47;666.50;2278.40
55016;DHT22;40919;43.236;21.590;2023-05-28T10:35:13;691.40;2227.20
55016;DHT22;40919;43.236;21.590;2023-05-28T10:37:39;691.60;2252.80
55016;DHT22;40919;43.236;21.590;2023-05-28T10:40:09;691.30;2278.40
55016;DHT22;40919;43.236;21.590;2023-05-28T10:42:40;666.40;2304.00
55016;DHT22;40919;43.236;21.590;2023-05-28T10:45:09;665.90;2329.60
55016;DHT22;40919;43.236;21.590;2023-05-28T10:47:51;665.60;2355.20
55016;DHT22;40919;43.236;21.590;2023-05-28T10:50:18;640.70;2329.60
55016;DHT22;40919;43.236;21.590;2023-05-28T10:53:03;640.60;2329.60
55016;DHT22;40919;43.236;21.590;2023-05-28T10:55:51;665.70;2329.60
55016;DHT22;40919;43.236;21.590;2023-05-28T10:58:26;665.70;2329.60
55016;DHT22;40919;43.236;21.590;2023-05-28T11:01:02;640.90;2329.60
55016;DHT22;40919;43.236;21.590;2023-05-28T11:03:47;640.60;2380.80
55016;DHT22;40919;43.236;21.590;2023-05-28T11:06:16;640.50;2355.20
55016;DHT22;40919;43.236;21.590;2023-05-28T11:08:44;640.50;2329.60
55016;DHT22;40919;43.236;21.590;2023-05-28T11:11:12;640.70;2329.60
55016;DHT22;40919;43.236;21.590;2023-05-28T11:13:38;665.80;2304.00
55016;DHT22;40919;43.236;21.590;2023-05-28T11:16:08;665.80;2329.60
55016;DHT22;40919;43.236;21.590;2023-05-28T11:18:34;665.70;2304.00
55016;DHT22;40919;43.236;21.590;2023-05-28T11:21:04;640.90;2278.40
55016;DHT22;40919;43.236;21.590;2023-05-28T11:23:33;665.60;2304.00
55016;DHT22;40919;43.236;21.590;2023-05-28T11:25:59;640.90;2278.40
55016;DHT22;40919;43.236;21.590;2023-05-28T11:28:25;665.60;2278.40
55016;DHT22;40919;43.236;21.590;2023-05-28T11:30:51;665.70;2304.00
55016;DHT22;40919;43.236;21.590;2023-05-28T11:33:17;665.90;2304.00
55016;DHT22;40919;43.236;21.590;2023-05-28T11:35:43;665.90;2304.00
55016;DHT22;40919;43.236;21.590;2023-05-28T11:38:09;665.70;2329.60
55016;DHT22;40919;43.236;21.590;2023-05-28T11:40:35;640.90;2278.40
55016;DHT22;40919;43.236;21.590;2023-05-28T11:43:01;640.90;2329.60
55016;DHT22;40919;43.236;21.590;2023-05-28T11:45:27;640.90;2355.20
55016;DHT22;40919;43.236;21.590;2023-05-28T11:47:53;640.70;2304.00
55016;DHT22;40919;43.236;21.590;2023-05-28T11:50:20;640.70;2329.60
55016;DHT22;40919;43.236;21.590;2023-05-28T11:52:47;665.90;2304.00
55016;DHT22;40919;43.236;21.590;2023-05-28T11:55:15;666.50;2227.20
55016;DHT22;40919;43.236;21.590;2023-05-28T11:57:51;691.40;2201.60
55016;DHT22;40919;43.236;21.590;2023-05-28T12:00:19;691.70;2201.60
55016;DHT22;40919;43.236;21.590;2023-05-28T12:02:51;691.70;2201.60
55016;DHT22;40919;43.236;21.590;2023-05-28T12:05:18;691.50;2176.00
55016;DHT22;40919;43.236;21.590;2023-05-28T12:10:12;691.90;2124.80
55016;DHT22;40919;43.236;21.590;2023-05-28T12:12:43;691.90;2124.80
55016;DHT22;40919;43.236;21.590;2023-05-28T12:15:09;691.90;2150.40
55016;DHT22;40919;43.236;21.590;2023-05-28T12:17:36;691.60;2201.60
55016;DHT22;40919;43.236;21.590;2023-05-28T12:22:42;691.20;2227.20
55016;DHT22;40919;43.236;21.590;2023-05-28T12:25:09;666.50;2252.80
55016;DHT22;40919;43.236;21.590;2023-05-28T12:27:36;666.30;2252.80
55016;DHT22;40919;43.236;21.590;2023-05-28T12:30:02;666.40;2278.40
55016;DHT22;40919;43.236;21.590;2023-05-28T12:32:28;666.30;2252.80
55016;DHT22;40919;43.236;21.590;2023-05-28T12:34:54;666.10;2227.20
55016;DHT22;40919;43.236;21.590;2023-05-28T12:37:22;666.00;2227.20
55016;DHT22;40919;43.236;21.590;2023-05-28T12:39:49;666.00;2227.20
55016;DHT22;40919;43.236;21.590;2023-05-28T12:42:15;666.00;2227.20
55016;DHT22;40919;43.236;21.590;2023-05-28T12:44:41;666.50;2201.60
55016;DHT22;40919;43.236;21.590;2023-05-28T12:47:07;691.40;2227.20
55016;DHT22;40919;43.236;21.590;2023-05-28T12:49:32;691.40;2227.20
55016;DHT22;40919;43.236;21.590;2023-05-28T12:51:58;691.20;2227.20
55016;DHT22;40919;43.236;21.590;2023-05-28T12:54:24;666.40;2252.80
55016;DHT22;40919;43.236;21.590;2023-05-28T12:56:50;666.20;2227.20
55016;DHT22;40919;43.236;21.590;2023-05-28T12:59:26;666.10;2227.20
55016;DHT22;40919;43.236;21.590;2023-05-28T13:01:52;666.50;2201.60
55016;DHT22;40919;43.236;21.590;2023-05-28T13:04:20;666.20;2201.60
55016;DHT22;40919;43.236;21.590;2023-05-28T13:06:46;666.00;2227.20
55016;DHT22;40919;43.236;21.590;2023-05-28T13:09:13;666.00;2201.60
55016;DHT22;40919;43.236;21.590;2023-05-28T13:11:43;691.20;2150.40
55016;DHT22;40919;43.236;21.590;2023-05-28T13:14:09;666.40;2176.00
55016;DHT22;40919;43.236;21.590;2023-05-28T13:16:36;666.10;2176.00
55016;DHT22;40919;43.236;21.590;2023-05-28T13:19:05;665.90;2176.00
55016;DHT22;40919;43.236;21.590;2023-05-28T13:21:31;665.60;2201.60
55016;DHT22;40919;43.236;21.590;2023-05-28T13:24:05;665.60;2150.40
55016;DHT22;40919;43.236;21.590;2023-05-28T13:26:35;640.90;2150.40
55016;DHT22;40919;43.236;21.590;2023-05-28T13:29:03;665.70;2201.60
55016;DHT22;40919;43.236;21.590;2023-05-28T13:31:32;666.20;2201.60
55016;DHT22;40919;43.236;21.590;2023-05-28T13:33:58;691.40;2201.60
55016;DHT22;40919;43.236;21.590;2023-05-28T13:36:24;691.80;2150.40
55016;DHT22;40919;43.236;21.590;2023-05-28T13:38:51;691.50;2176.00
55016;DHT22;40919;43.236;21.590;2023-05-28T13:41:18;691.50;2150.40
55016;DHT22;40919;43.236;21.590;2023-05-28T13:43:44;692.10;2150.40
55016;DHT22;40919;43.236;21.590;2023-05-28T13:46:10;691.90;2176.00
55016;DHT22;40919;43.236;21.590;2023-05-28T13:48:36;691.60;2150.40
55016;DHT22;40919;43.236;21.590;2023-05-28T13:51:03;691.20;2176.00
55016;DHT22;40919;43.236;21.590;2023-05-28T13:53:30;666.40;2201.60
55016;DHT22;40919;43.236;21.590;2023-05-28T13:55:56;666.20;2227.20
55016;DHT22;40919;43.236;21.590;2023-05-28T13:58:23;640.90;2227.20
55016;DHT22;40919;43.236;21.590;2023-05-28T14:00:49;665.70;2201.60
55016;DHT22;40919;43.236;21.590;2023-05-28T14:03:15;665.60;2227.20
55016;DHT22;40919;43.236;21.590;2023-05-28T14:05:43;665.60;2227.20
55016;DHT22;40919;43.236;21.590;2023-05-28T14:08:10;640.90;2201.60
55016;DHT22;40919;43.236;21.590;2023-05-28T14:10:36;640.80;2176.00
55016;DHT22;40919;43.236;21.590;2023-05-28T14:13:02;640.60;2150.40
55016;DHT22;40919;43.236;21.590;2023-05-28T14:15:27;640.60;2150.40
55016;DHT22;40919;43.236;21.590;2023-05-28T14:17:53;640.40;2201.60
55016;DHT22;40919;43.236;21.590;2023-05-28T14:20:19;640.40;2201.60
55016;DHT22;40919;43.236;21.590;2023-05-28T14:22:45;640.30;2201.60
55016;DHT22;40919;43.236;21.590;2023-05-28T14:25:11;640.20;2201.60
55016;DHT22;40919;43.236;21.590;2023-05-28T14:27:37;640.30;2201.60
55016;DHT22;40919;43.236;21.590;2023-05-28T14:30:04;665.60;2201.60
55016;DHT22;40919;43.236;21.590;2023-05-28T14:32:30;666.10;2176.00
55016;DHT22;40919;43.236;21.590;2023-05-28T14:34:59;666.50;2150.40
55016;DHT22;40919;43.236;21.590;2023-05-28T14:37:25;691.60;2124.80
55016;DHT22;40919;43.236;21.590;2023-05-28T14:39:51;691.90;2073.60
55016;DHT22;40919;43.236;21.590;2023-05-28T14:42:17;716.80;2048.00